Time;durP1;ratioP1;P1;durP2;ratioP2;P2;SDS_P1;SDS_P2;PMS_P1;PMS_P2;Temp;Humidity;BMP_temperature;BMP_pressure;BME280_temperature;BME280_humidity;BME280_pressure;Samples;Min_cycle;Max_cycle;Signal;HPM_P1;HPM_P2
2023/03/17 00:00:05;;;;;;;2.43;2.23;;;6.80;99.90;;;;;;485517;244;27698;-76
2023/03/17 00:02:07;;;;;;;2.60;2.10;;;6.90;99.90;;;;;;485522;244;29187;-75
2023/03/17 00:04:08;;;;;;;2.00;1.90;;;6.90;99.90;;;;;;485545;244;28165;-76
2023/03/17 00:06:09;;;;;;;2.50;2.20;;;6.80;99.90;;;;;;485481;244;28314;-75
2023/03/17 00:08:10;;;;;;;2.60;2.07;;;6.80;99.90;;;;;;485619;244;29224;-76
2023/03/17 00:10:11;;;;;;;4.20;2.10;;;6.80;99.90;;;;;;485479;244;29173;-76
2023/03/17 00:12:14;;;;;;;2.80;2.30;;;6.80;99.90;;;;;;485598;244;29330;-76
2023/03/17 00:14:14;;;;;;;2.50;2.30;;;6.90;99.90;;;;;;485558;244;28959;-76
2023/03/17 00:16:15;;;;;;;3.30;2.30;;;6.90;99.90;;;;;;485484;244;28440;-75
2023/03/17 00:18:16;;;;;;;2.27;2.07;;;6.90;99.90;;;;;;485651;244;28008;-75
2023/03/17 00:20:17;;;;;;;3.92;2.22;;;6.90;99.90;;;;;;485629;244;27943;-76
2023/03/17 00:22:21;;;;;;;2.57;2.20;;;7.00;99.90;;;;;;485595;244;27515;-75
2023/03/17 00:24:20;;;;;;;2.40;2.20;;;7.00;99.90;;;;;;485512;244;27935;-76
2023/03/17 00:26:22;;;;;;;4.00;2.33;;;7.20;99.90;;;;;;485602;244;28002;-76
2023/03/17 00:28:22;;;;;;;3.60;1.97;;;7.20;99.90;;;;;;485612;244;28052;-76
2023/03/17 00:30:24;;;;;;;5.63;2.33;;;7.20;99.90;;;;;;485604;245;27491;-75
2023/03/17 00:32:25;;;;;;;2.60;2.20;;;7.30;99.90;;;;;;485500;244;28063;-76
2023/03/17 00:34:27;;;;;;;2.63;2.10;;;7.30;99.90;;;;;;485591;244;27534;-76
2023/03/17 00:36:28;;;;;;;5.03;1.97;;;7.30;99.90;;;;;;485536;244;27952;-76
2023/03/17 00:38:29;;;;;;;1.90;1.80;;;7.30;99.90;;;;;;485575;244;27845;-76
2023/03/17 00:40:31;;;;;;;2.20;2.00;;;7.20;99.90;;;;;;485556;244;27643;-75
2023/03/17 00:42:31;;;;;;;2.33;2.13;;;7.20;99.90;;;;;;485551;244;28713;-76
2023/03/17 00:44:33;;;;;;;3.33;2.10;;;7.20;99.90;;;;;;485599;244;28492;-76
2023/03/17 00:46:37;;;;;;;2.43;1.90;;;7.40;99.90;;;;;;485618;244;28303;-75
2023/03/17 00:48:38;;;;;;;3.20;1.80;;;7.40;99.90;;;;;;485594;244;28278;-76
2023/03/17 00:50:39;;;;;;;3.33;2.10;;;7.50;99.90;;;;;;485625;244;28779;-76
2023/03/17 00:52:40;;;;;;;2.03;1.93;;;7.50;99.90;;;;;;485451;244;27943;-76
2023/03/17 00:54:42;;;;;;;3.00;1.60;;;7.40;99.90;;;;;;485601;244;28526;-76
2023/03/17 00:56:43;;;;;;;4.83;2.43;;;7.40;99.90;;;;;;485601;244;28407;-75
2023/03/17 00:58:44;;;;;;;2.27;2.03;;;7.40;99.90;;;;;;485624;244;28311;-76
2023/03/17 01:00:46;;;;;;;2.83;2.20;;;7.40;99.90;;;;;;485626;245;28007;-76
2023/03/17 01:02:47;;;;;;;3.33;2.23;;;7.40;99.90;;;;;;485623;244;27521;-75
2023/03/17 01:04:48;;;;;;;3.67;2.57;;;7.30;99.90;;;;;;485540;244;27976;-75
2023/03/17 01:06:49;;;;;;;3.30;2.53;;;7.40;99.90;;;;;;485486;244;27820;-76
2023/03/17 01:08:51;;;;;;;3.60;2.30;;;7.40;99.90;;;;;;485260;244;27995;-75
2023/03/17 01:10:52;;;;;;;1.80;1.70;;;7.40;99.90;;;;;;485385;244;27905;-76
2023/03/17 01:12:53;;;;;;;2.67;1.93;;;7.40;99.90;;;;;;485452;244;27649;-76
2023/03/17 01:14:54;;;;;;;3.03;1.87;;;7.50;99.90;;;;;;485391;244;28023;-76
2023/03/17 01:16:56;;;;;;;2.00;1.90;;;7.40;99.90;;;;;;485752;244;28907;-76
2023/03/17 01:18:57;;;;;;;2.90;2.10;;;7.50;99.90;;;;;;485619;244;27961;-75
2023/03/17 01:20:58;;;;;;;2.93;2.10;;;7.50;99.90;;;;;;485730;244;27620;-75
2023/03/17 01:22:59;;;;;;;3.33;1.90;;;7.50;99.90;;;;;;485689;244;27965;-76
2023/03/17 01:25:00;;;;;;;2.33;2.13;;;7.60;99.90;;;;;;485630;244;27542;-75
2023/03/17 01:27:02;;;;;;;5.80;1.87;;;7.50;99.90;;;;;;485694;244;28466;-76
2023/03/17 01:29:03;;;;;;;2.47;2.27;;;7.50;99.90;;;;;;485682;244;28701;-76
2023/03/17 01:31:04;;;;;;;1.83;1.73;;;7.50;99.90;;;;;;485628;244;28554;-75
2023/03/17 01:33:05;;;;;;;2.70;2.27;;;7.50;99.90;;;;;;485700;244;27773;-76
2023/03/17 01:35:07;;;;;;;3.57;2.17;;;7.50;99.90;;;;;;485643;244;28437;-76
2023/03/17 01:37:08;;;;;;;2.03;1.93;;;7.50;99.90;;;;;;485505;244;28020;-76
2023/03/17 01:39:09;;;;;;;3.30;1.97;;;7.40;99.90;;;;;;485668;245;27814;-75
2023/03/17 01:41:11;;;;;;;2.20;2.07;;;7.50;99.90;;;;;;485501;244;27985;-75
2023/03/17 01:43:12;;;;;;;3.63;2.07;;;7.60;99.90;;;;;;485598;245;28187;-75
2023/03/17 01:45:14;;;;;;;2.80;1.90;;;7.60;99.90;;;;;;485664;244;27743;-75
2023/03/17 01:47:15;;;;;;;2.03;1.80;;;7.50;99.90;;;;;;485584;244;27783;-75
2023/03/17 01:49:15;;;;;;;2.67;2.00;;;7.50;99.90;;;;;;485357;244;27833;-75
2023/03/17 01:51:17;;;;;;;3.47;2.13;;;7.50;99.90;;;;;;485547;244;27958;-75
2023/03/17 01:53:19;;;;;;;2.10;1.90;;;7.50;99.90;;;;;;485627;244;27963;-76
2023/03/17 01:55:19;;;;;;;3.57;2.10;;;7.40;99.90;;;;;;485450;244;27860;-75
2023/03/17 01:57:22;;;;;;;2.50;2.10;;;7.40;99.90;;;;;;485470;244;27934;-76
2023/03/17 01:59:22;;;;;;;3.27;1.63;;;7.40;99.90;;;;;;485567;244;27941;-76
2023/03/17 02:01:24;;;;;;;1.77;1.57;;;7.40;99.90;;;;;;485464;244;28320;-75
2023/03/17 02:03:24;;;;;;;2.13;1.80;;;7.40;99.90;;;;;;485508;244;28406;-76
2023/03/17 02:05:25;;;;;;;2.20;1.93;;;7.40;99.90;;;;;;485651;244;28454;-76
2023/03/17 02:07:27;;;;;;;2.13;1.93;;;7.40;99.90;;;;;;485303;244;28487;-76
2023/03/17 02:09:28;;;;;;;3.83;2.07;;;7.40;99.90;;;;;;485609;244;28495;-76
2023/03/17 02:11:29;;;;;;;3.90;1.70;;;7.30;99.90;;;;;;485474;244;27984;-75
2023/03/17 02:13:30;;;;;;;2.07;1.87;;;7.30;99.90;;;;;;485569;244;28838;-76
2023/03/17 02:15:32;;;;;;;2.10;1.70;;;7.20;99.90;;;;;;485660;244;27749;-76
2023/03/17 02:17:33;;;;;;;2.50;1.90;;;7.00;99.90;;;;;;485625;245;28389;-76
2023/03/17 02:19:34;;;;;;;2.47;2.13;;;6.80;99.90;;;;;;485576;244;28051;-76
2023/03/17 02:21:35;;;;;;;3.57;1.97;;;6.70;99.90;;;;;;485668;244;27986;-74
2023/03/17 02:23:37;;;;;;;3.97;1.80;;;6.60;99.90;;;;;;485599;244;28882;-75
2023/03/17 02:25:38;;;;;;;4.23;1.80;;;6.60;99.90;;;;;;485642;244;27651;-76
2023/03/17 02:27:40;;;;;;;2.05;1.75;;;6.60;99.90;;;;;;485656;244;27972;-76
2023/03/17 02:29:40;;;;;;;1.50;1.40;;;6.60;99.90;;;;;;485583;244;27498;-76
2023/03/17 02:31:42;;;;;;;1.77;1.67;;;6.70;99.90;;;;;;485647;244;28943;-75
2023/03/17 02:33:43;;;;;;;2.40;1.63;;;6.70;99.90;;;;;;485535;244;27478;-75
2023/03/17 02:35:45;;;;;;;1.80;1.70;;;6.70;99.90;;;;;;485591;244;28056;-76
2023/03/17 02:37:46;;;;;;;1.53;1.43;;;6.80;99.90;;;;;;485650;244;27581;-76
2023/03/17 02:39:47;;;;;;;2.20;2.00;;;6.80;99.90;;;;;;485561;244;29403;-75
2023/03/17 02:41:48;;;;;;;2.53;1.92;;;6.90;99.90;;;;;;485655;244;27507;-75
2023/03/17 02:43:51;;;;;;;2.13;1.93;;;6.90;99.90;;;;;;485632;244;28720;-75
2023/03/17 02:45:51;;;;;;;2.67;1.70;;;7.00;99.90;;;;;;485487;244;28392;-75
2023/03/17 02:47:53;;;;;;;2.37;1.70;;;6.90;99.80;;;;;;485520;244;28019;-75
2023/03/17 02:49:54;;;;;;;3.03;1.97;;;6.90;99.90;;;;;;485637;244;27890;-74
2023/03/17 02:51:56;;;;;;;1.70;1.60;;;6.80;99.90;;;;;;485582;244;28809;-75
2023/03/17 02:53:57;;;;;;;2.13;1.80;;;6.70;99.90;;;;;;485598;244;28008;-75
2023/03/17 02:55:58;;;;;;;1.70;1.60;;;6.60;99.90;;;;;;485490;244;30252;-75
2023/03/17 02:58:01;;;;;;;7.60;2.22;;;6.50;99.90;;;;;;485368;244;27641;-75
2023/03/17 03:00:00;;;;;;;2.22;2.03;;;6.50;99.90;;;;;;485306;244;27544;-75
2023/03/17 03:02:02;;;;;;;2.90;2.50;;;6.30;99.90;;;;;;485447;244;27476;-75
2023/03/17 03:04:03;;;;;;;3.30;2.03;;;6.40;99.90;;;;;;485602;244;27514;-75
2023/03/17 03:06:04;;;;;;;2.00;1.60;;;6.30;99.90;;;;;;485610;245;27560;-76
2023/03/17 03:08:06;;;;;;;1.90;1.80;;;6.40;99.90;;;;;;485521;244;28035;-76
2023/03/17 03:10:08;;;;;;;2.20;1.70;;;6.40;99.90;;;;;;485654;244;27522;-75
2023/03/17 03:12:08;;;;;;;1.70;1.60;;;6.30;99.90;;;;;;485571;245;27508;-76
2023/03/17 03:14:09;;;;;;;2.35;1.87;;;6.20;99.90;;;;;;485668;244;27495;-75
2023/03/17 03:16:11;;;;;;;2.10;1.90;;;6.20;99.90;;;;;;485612;244;27570;-76
2023/03/17 03:18:12;;;;;;;2.95;1.87;;;6.20;99.90;;;;;;485602;244;28123;-75
2023/03/17 03:20:13;;;;;;;1.70;1.60;;;6.30;99.90;;;;;;485621;244;28364;-75
2023/03/17 03:22:14;;;;;;;2.55;1.87;;;6.30;99.90;;;;;;485539;244;27460;-76
2023/03/17 03:24:16;;;;;;;2.08;1.90;;;6.20;99.90;;;;;;485578;244;27532;-76
2023/03/17 03:26:17;;;;;;;3.00;2.00;;;6.20;99.90;;;;;;485541;244;27589;-76
2023/03/17 03:28:18;;;;;;;1.98;1.75;;;6.10;99.90;;;;;;485253;244;27477;-76
2023/03/17 03:30:19;;;;;;;2.08;1.87;;;6.00;99.90;;;;;;485634;244;27524;-76
2023/03/17 03:32:21;;;;;;;1.83;1.65;;;6.00;99.90;;;;;;485586;244;27948;-76
2023/03/17 03:34:22;;;;;;;1.70;1.60;;;6.00;99.90;;;;;;485567;244;27991;-76
2023/03/17 03:36:24;;;;;;;4.25;2.80;;;6.00;99.90;;;;;;485648;244;27563;-76
2023/03/17 03:38:24;;;;;;;2.15;2.05;;;5.90;99.90;;;;;;485611;245;27462;-75
2023/03/17 03:40:26;;;;;;;2.85;2.47;;;5.90;99.90;;;;;;485617;244;27602;-75
2023/03/17 03:42:27;;;;;;;3.47;2.55;;;6.00;99.90;;;;;;485559;244;27523;-76
2023/03/17 03:44:28;;;;;;;2.83;1.92;;;5.90;99.90;;;;;;485424;244;27522;-76
2023/03/17 03:46:30;;;;;;;1.87;1.77;;;5.90;99.90;;;;;;485635;244;28820;-76
2023/03/17 03:48:31;;;;;;;3.50;2.25;;;5.80;99.90;;;;;;485574;244;27944;-76
2023/03/17 03:50:32;;;;;;;2.22;2.03;;;5.90;99.90;;;;;;485557;244;27521;-75
2023/03/17 03:52:33;;;;;;;2.55;2.08;;;5.90;99.90;;;;;;485631;245;27467;-76
2023/03/17 03:54:34;;;;;;;2.30;1.83;;;6.00;99.90;;;;;;485643;244;27520;-76
2023/03/17 03:56:36;;;;;;;2.45;2.10;;;5.90;99.90;;;;;;485591;244;27562;-76
2023/03/17 03:58:37;;;;;;;5.50;2.37;;;5.80;99.90;;;;;;485651;245;27520;-75
2023/03/17 04:00:38;;;;;;;2.08;1.95;;;5.90;99.90;;;;;;485556;244;28042;-75
2023/03/17 04:02:40;;;;;;;2.33;1.67;;;5.90;99.90;;;;;;485640;244;27471;-76
2023/03/17 04:04:41;;;;;;;6.53;2.10;;;5.90;99.90;;;;;;485596;244;27499;-75
2023/03/17 04:06:42;;;;;;;1.80;1.70;;;5.80;99.90;;;;;;485617;244;27586;-76
2023/03/17 04:08:43;;;;;;;2.08;1.90;;;5.70;99.90;;;;;;485630;244;27604;-75
2023/03/17 04:10:45;;;;;;;2.40;2.17;;;5.70;99.90;;;;;;485559;244;27602;-75
2023/03/17 04:12:46;;;;;;;2.50;2.15;;;5.70;99.90;;;;;;485637;245;27966;-76
2023/03/17 04:14:47;;;;;;;1.85;1.67;;;5.70;99.90;;;;;;492329;236;27923;-76
2023/03/17 04:16:48;;;;;;;3.25;2.22;;;5.80;99.90;;;;;;494904;240;27383;-75
2023/03/17 04:18:50;;;;;;;3.60;2.35;;;5.70;99.90;;;;;;495028;240;27351;-76
2023/03/17 04:20:51;;;;;;;4.87;3.70;;;5.70;99.90;;;;;;494981;240;27383;-75
2023/03/17 04:22:52;;;;;;;3.20;2.90;;;5.60;99.90;;;;;;494915;240;27356;-76
2023/03/17 04:24:53;;;;;;;4.10;2.60;;;5.70;99.90;;;;;;494986;240;27490;-75
2023/03/17 04:26:55;;;;;;;3.00;2.70;;;5.60;99.90;;;;;;495030;240;28343;-76
2023/03/17 04:28:56;;;;;;;6.68;2.87;;;5.70;99.90;;;;;;494965;240;27890;-76
2023/03/17 04:30:57;;;;;;;2.35;2.15;;;5.60;99.90;;;;;;495018;240;27399;-75
2023/03/17 04:32:58;;;;;;;4.20;2.30;;;5.70;99.90;;;;;;494957;240;27367;-75
2023/03/17 04:35:00;;;;;;;2.35;2.15;;;5.60;99.90;;;;;;494895;240;27397;-75
2023/03/17 04:37:01;;;;;;;4.87;2.50;;;5.70;99.90;;;;;;494734;240;27427;-75
2023/03/17 04:39:02;;;;;;;2.87;2.00;;;5.60;99.90;;;;;;494835;240;27462;-76
2023/03/17 04:41:03;;;;;;;1.95;1.85;;;5.60;99.90;;;;;;494945;240;27973;-75
2023/03/17 04:43:05;;;;;;;3.00;2.28;;;5.50;99.90;;;;;;495004;240;27810;-75
2023/03/17 04:45:06;;;;;;;4.28;2.37;;;5.50;99.90;;;;;;494905;240;27391;-75
2023/03/17 04:47:07;;;;;;;2.10;2.00;;;5.40;99.90;;;;;;495030;240;27383;-75
2023/03/17 04:49:08;;;;;;;2.65;2.00;;;5.40;99.90;;;;;;494939;240;27367;-75
2023/03/17 04:51:10;;;;;;;2.50;2.30;;;5.50;99.90;;;;;;494983;240;27487;-75
2023/03/17 04:53:11;;;;;;;2.97;1.85;;;5.60;99.90;;;;;;495011;240;27418;-76
2023/03/17 04:55:12;;;;;;;2.30;2.10;;;5.60;99.90;;;;;;494974;240;27469;-76
2023/03/17 04:57:14;;;;;;;2.12;1.92;;;5.60;99.90;;;;;;495033;240;27951;-76
2023/03/17 04:59:15;;;;;;;3.15;2.00;;;5.50;99.90;;;;;;494983;240;27419;-76
2023/03/17 05:01:16;;;;;;;2.62;2.10;;;5.50;99.90;;;;;;494992;240;27387;-75
2023/03/17 05:03:18;;;;;;;2.20;1.80;;;5.40;99.90;;;;;;494956;240;27485;-76
2023/03/17 05:05:19;;;;;;;2.87;2.20;;;5.40;99.90;;;;;;494841;240;27434;-75
2023/03/17 05:07:20;;;;;;;2.47;2.10;;;5.50;99.90;;;;;;495037;239;27462;-76
2023/03/17 05:09:21;;;;;;;2.65;2.10;;;5.50;99.90;;;;;;495066;240;27395;-76
2023/03/17 05:11:22;;;;;;;2.00;1.90;;;5.50;99.90;;;;;;494989;240;27909;-75
2023/03/17 05:13:23;;;;;;;2.15;2.05;;;5.50;99.90;;;;;;495020;240;27813;-76
2023/03/17 05:15:25;;;;;;;2.55;2.35;;;5.50;99.90;;;;;;494899;240;27506;-75
2023/03/17 05:17:26;;;;;;;2.35;1.90;;;5.50;99.90;;;;;;495027;240;27474;-75
2023/03/17 05:19:27;;;;;;;6.57;2.90;;;5.50;99.90;;;;;;495010;240;27442;-76
2023/03/17 05:21:29;;;;;;;4.97;2.87;;;5.40;99.90;;;;;;494866;240;27506;-75
2023/03/17 05:23:30;;;;;;;2.20;2.00;;;5.50;99.90;;;;;;495002;240;27359;-75
2023/03/17 05:25:31;;;;;;;4.70;3.37;;;5.50;99.90;;;;;;494912;240;27402;-76
2023/03/17 05:27:32;;;;;;;4.45;4.00;;;5.30;99.90;;;;;;494838;240;28038;-76
2023/03/17 05:29:34;;;;;;;3.67;3.33;;;5.10;99.90;;;;;;494947;239;27795;-75
2023/03/17 05:31:35;;;;;;;3.03;2.72;;;4.80;99.90;;;;;;494789;240;27528;-75
2023/03/17 05:33:36;;;;;;;2.97;2.78;;;4.70;99.90;;;;;;494880;240;27473;-76
2023/03/17 05:35:37;;;;;;;3.53;2.78;;;4.80;99.90;;;;;;494790;240;27475;-75
2023/03/17 05:37:39;;;;;;;4.45;3.05;;;4.60;99.90;;;;;;495067;239;27382;-76
2023/03/17 05:39:40;;;;;;;2.85;2.47;;;4.60;99.90;;;;;;495206;240;27359;-75
2023/03/17 05:41:41;;;;;;;2.90;2.70;;;4.50;99.90;;;;;;495177;240;27409;-76
2023/03/17 05:43:42;;;;;;;4.75;3.05;;;4.50;99.90;;;;;;495264;240;27868;-76
2023/03/17 05:45:44;;;;;;;5.75;2.30;;;4.60;99.90;;;;;;495181;240;27846;-75
2023/03/17 05:47:45;;;;;;;3.35;2.85;;;4.70;99.90;;;;;;494992;240;27954;-74
2023/03/17 05:49:46;;;;;;;3.97;2.90;;;4.80;99.90;;;;;;495086;240;27348;-75
2023/03/17 05:51:47;;;;;;;4.95;2.65;;;5.10;99.90;;;;;;494807;239;27493;-75
2023/03/17 05:53:49;;;;;;;3.22;2.50;;;5.10;99.90;;;;;;494919;239;27449;-75
2023/03/17 05:55:51;;;;;;;4.35;2.75;;;5.10;99.90;;;;;;486890;242;27513;-75
2023/03/17 05:57:51;;;;;;;2.95;2.35;;;5.10;99.90;;;;;;480068;247;27899;-75
2023/03/17 05:59:53;;;;;;;7.05;2.53;;;5.00;99.90;;;;;;481992;246;27433;-76
2023/03/17 06:01:54;;;;;;;4.65;2.60;;;5.00;99.90;;;;;;481525;247;27896;-76
2023/03/17 06:03:55;;;;;;;2.83;2.62;;;5.00;99.90;;;;;;481816;245;27870;-75
2023/03/17 06:05:56;;;;;;;2.37;2.17;;;5.20;99.90;;;;;;481850;245;27909;-75
2023/03/17 06:07:57;;;;;;;3.35;2.15;;;5.30;99.90;;;;;;481837;245;27427;-76
2023/03/17 06:09:59;;;;;;;3.35;2.10;;;5.30;99.90;;;;;;481822;245;27409;-76
2023/03/17 06:12:00;;;;;;;2.95;2.65;;;5.30;99.90;;;;;;481780;245;27435;-76
2023/03/17 06:14:01;;;;;;;4.68;2.80;;;5.40;99.90;;;;;;481802;245;27458;-76
2023/03/17 06:16:02;;;;;;;4.47;2.95;;;5.40;99.90;;;;;;481829;245;27494;-76
2023/03/17 06:18:04;;;;;;;5.93;3.47;;;5.50;99.90;;;;;;481854;245;27453;-76
2023/03/17 06:20:05;;;;;;;6.70;4.12;;;5.50;99.90;;;;;;481742;245;27957;-75
2023/03/17 06:22:06;;;;;;;6.40;4.40;;;5.60;99.90;;;;;;481860;245;28013;-76
2023/03/17 06:24:08;;;;;;;4.20;3.17;;;5.60;99.90;;;;;;481824;245;27498;-76
2023/03/17 06:26:09;;;;;;;4.50;3.60;;;5.80;99.90;;;;;;481764;245;27443;-77
2023/03/17 06:28:10;;;;;;;9.68;6.25;;;6.00;99.90;;;;;;481778;245;27781;-75
2023/03/17 06:30:12;;;;;;;22.92;13.95;;;6.10;99.90;;;;;;481720;247;27480;-76
2023/03/17 06:32:13;;;;;;;8.38;5.28;;;6.30;99.90;;;;;;481785;245;27446;-74
2023/03/17 06:34:14;;;;;;;8.70;5.40;;;6.40;99.90;;;;;;481814;245;27843;-76
2023/03/17 06:36:15;;;;;;;4.93;3.50;;;6.50;99.90;;;;;;481758;245;27939;-75
2023/03/17 06:38:16;;;;;;;6.43;3.20;;;6.60;99.90;;;;;;482394;243;27505;-75
2023/03/17 06:40:18;;;;;;;6.68;3.50;;;6.60;99.90;;;;;;485821;245;27396;-75
2023/03/17 06:42:19;;;;;;;5.77;4.57;;;6.70;99.90;;;;;;482977;245;27508;-74
2023/03/17 06:44:20;;;;;;;5.30;3.97;;;6.80;99.90;;;;;;492275;241;28830;-75
2023/03/17 06:46:21;;;;;;;5.80;3.90;;;6.80;99.90;;;;;;492149;241;27856;-74
2023/03/17 06:48:23;;;;;;;7.40;3.33;;;6.90;99.90;;;;;;483538;241;29331;-75
2023/03/17 06:50:24;;;;;;;4.50;3.47;;;7.10;99.90;;;;;;479017;248;28471;-77
2023/03/17 06:52:26;;;;;;;3.87;3.03;;;7.10;99.90;;;;;;485231;239;29171;-76
2023/03/17 06:54:26;;;;;;;4.00;2.67;;;7.30;99.90;;;;;;496936;239;28270;-76
2023/03/17 06:56:28;;;;;;;3.73;2.90;;;7.40;99.90;;;;;;496954;239;28228;-77
2023/03/17 06:58:29;;;;;;;3.17;2.50;;;7.50;99.90;;;;;;488171;239;28395;-75
2023/03/17 07:00:30;;;;;;;3.80;2.97;;;7.50;99.90;;;;;;495068;240;27743;-75
2023/03/17 07:02:32;;;;;;;4.97;3.20;;;7.50;99.90;;;;;;489668;239;27944;-75
2023/03/17 07:04:36;;;;;;;3.80;2.60;;;7.60;99.90;;;;;;481243;247;28874;-74
2023/03/17 07:06:34;;;;;;;3.00;2.70;;;7.80;99.90;;;;;;485408;240;28457;-73
2023/03/17 07:08:35;;;;;;;3.30;3.00;;;7.90;99.90;;;;;;495951;239;28345;-74
2023/03/17 07:10:36;;;;;;;8.43;4.63;;;8.00;99.90;;;;;;496358;239;28019;-74
2023/03/17 07:12:38;;;;;;;4.47;4.07;;;8.40;99.90;;;;;;489644;239;28549;-74
2023/03/17 07:14:39;;;;;;;4.77;4.23;;;8.50;99.40;;;;;;490759;242;28708;-74
2023/03/17 07:16:40;;;;;;;4.10;2.43;;;8.70;97.90;;;;;;488274;243;27768;-75
2023/03/17 07:18:42;;;;;;;3.97;3.40;;;8.90;97.40;;;;;;486632;242;27925;-75
2023/03/17 07:20:43;;;;;;;3.20;2.90;;;9.00;97.20;;;;;;478946;248;27981;-75
2023/03/17 07:22:44;;;;;;;3.17;2.37;;;9.10;96.40;;;;;;481541;244;28500;-76
2023/03/17 07:24:47;;;;;;;3.87;2.77;;;9.10;96.10;;;;;;486540;239;28703;-76
2023/03/17 07:26:46;;;;;;;4.77;2.50;;;9.20;95.70;;;;;;477802;249;28572;-74
2023/03/17 07:28:48;;;;;;;3.10;2.50;;;9.30;95.40;;;;;;478119;249;28434;-73
2023/03/17 07:30:49;;;;;;;4.13;3.47;;;9.30;94.80;;;;;;480605;244;28643;-75
2023/03/17 07:32:50;;;;;;;5.10;3.43;;;9.40;95.20;;;;;;489969;242;28098;-76
2023/03/17 07:34:51;;;;;;;8.23;5.50;;;9.40;96.60;;;;;;495215;240;27848;-76
2023/03/17 07:36:53;;;;;;;6.27;4.60;;;9.50;96.70;;;;;;478471;246;28007;-74
2023/03/17 07:38:54;;;;;;;7.10;5.23;;;9.60;95.30;;;;;;478676;247;27914;-74
2023/03/17 07:40:55;;;;;;;3.97;2.23;;;9.60;94.80;;;;;;483284;244;27573;-75
2023/03/17 07:42:57;;;;;;;8.23;2.50;;;9.70;95.00;;;;;;487346;242;27845;-74
2023/03/17 07:44:58;;;;;;;3.73;2.70;;;9.70;94.50;;;;;;482399;242;28602;-74
2023/03/17 07:46:59;;;;;;;5.00;2.80;;;9.80;94.80;;;;;;496802;239;27973;-74
2023/03/17 07:49:01;;;;;;;2.40;2.20;;;9.90;92.70;;;;;;499601;238;27809;-74
2023/03/17 07:51:02;;;;;;;2.40;2.20;;;9.90;94.20;;;;;;482210;243;27900;-76
2023/03/17 07:53:03;;;;;;;4.20;2.57;;;9.90;91.60;;;;;;475445;250;27677;-75
2023/03/17 07:55:07;;;;;;;3.90;2.20;;;10.10;90.90;;;;;;478550;240;27941;-77
2023/03/17 07:57:05;;;;;;;6.83;2.40;;;10.10;89.30;;;;;;492045;241;27925;-77
2023/03/17 07:59:07;;;;;;;2.40;2.20;;;10.10;87.40;;;;;;478774;248;28033;-76
2023/03/17 08:01:08;;;;;;;2.73;2.00;;;10.10;86.80;;;;;;476763;248;28350;-76
2023/03/17 08:03:09;;;;;;;5.50;2.30;;;10.30;84.80;;;;;;491755;242;27927;-77
2023/03/17 08:05:11;;;;;;;2.83;2.20;;;10.40;84.20;;;;;;493039;241;27899;-76
2023/03/17 08:07:12;;;;;;;3.33;1.80;;;10.50;84.40;;;;;;493053;241;28297;-76
2023/03/17 08:09:13;;;;;;;2.23;1.73;;;10.50;85.60;;;;;;493192;241;28417;-75
2023/03/17 08:11:15;;;;;;;2.93;2.20;;;10.60;85.00;;;;;;494729;240;28014;-74
2023/03/17 08:13:16;;;;;;;2.17;1.67;;;10.70;78.70;;;;;;499438;238;27916;-75
2023/03/17 08:15:17;;;;;;;4.23;1.80;;;10.90;80.90;;;;;;486148;243;28105;-76
2023/03/17 08:17:18;;;;;;;3.80;2.10;;;10.90;81.00;;;;;;475171;250;28171;-75
2023/03/17 08:19:20;;;;;;;2.70;2.50;;;10.90;78.30;;;;;;475541;250;28118;-75
2023/03/17 08:21:21;;;;;;;2.53;1.63;;;11.00;76.10;;;;;;487608;240;28090;-75
2023/03/17 08:23:22;;;;;;;2.23;2.03;;;11.00;78.90;;;;;;492130;241;28002;-76
2023/03/17 08:25:23;;;;;;;5.00;1.73;;;11.00;80.00;;;;;;481481;242;28533;-75
2023/03/17 08:27:25;;;;;;;6.73;2.33;;;11.10;78.70;;;;;;489123;242;28641;-75
2023/03/17 08:29:27;;;;;;;2.60;2.40;;;11.10;75.40;;;;;;486532;244;28072;-77
2023/03/17 08:31:27;;;;;;;2.10;1.90;;;11.20;74.90;;;;;;490485;237;28552;-74
2023/03/17 08:33:29;;;;;;;3.37;1.70;;;11.30;77.50;;;;;;485438;245;28814;-76
2023/03/17 08:35:30;;;;;;;3.07;2.07;;;11.30;75.30;;;;;;485171;244;28484;-77
2023/03/17 08:37:31;;;;;;;1.80;1.70;;;11.40;74.50;;;;;;485499;245;28308;-76
2023/03/17 08:39:32;;;;;;;2.27;2.07;;;11.50;73.40;;;;;;486907;244;28616;-78
2023/03/17 08:41:37;;;;;;;2.30;2.10;;;11.50;72.90;;;;;;494721;240;28716;-75
2023/03/17 08:43:38;;;;;;;2.90;2.70;;;11.60;70.70;;;;;;479209;240;28930;-75
2023/03/17 08:45:39;;;;;;;1.77;1.67;;;11.70;71.10;;;;;;474570;247;28460;-76
2023/03/17 08:47:41;;;;;;;3.20;2.30;;;11.70;68.70;;;;;;474971;248;28591;-76
2023/03/17 08:49:44;;;;;;;2.30;1.73;;;11.80;67.90;;;;;;468453;253;29365;-77
2023/03/17 08:51:46;;;;;;;2.37;1.90;;;11.80;68.90;;;;;;472413;252;28167;-76
2023/03/17 08:53:47;;;;;;;2.47;2.00;;;11.80;68.50;;;;;;477830;249;28139;-75
2023/03/17 08:55:48;;;;;;;2.90;1.87;;;11.90;66.60;;;;;;470172;252;28594;-76
2023/03/17 08:57:50;;;;;;;3.00;1.90;;;11.90;67.60;;;;;;476749;249;28575;-76
2023/03/17 08:59:51;;;;;;;4.10;1.70;;;11.90;66.60;;;;;;471817;249;28319;-76
2023/03/17 09:01:52;;;;;;;3.47;2.37;;;12.00;68.60;;;;;;469976;253;28695;-75
2023/03/17 09:03:53;;;;;;;2.60;1.77;;;12.10;67.50;;;;;;469900;253;29608;-75
2023/03/17 09:05:54;;;;;;;2.03;1.70;;;12.30;66.90;;;;;;469146;249;29373;-76
2023/03/17 09:07:56;;;;;;;3.57;2.00;;;12.30;66.40;;;;;;469258;253;29430;-75
2023/03/17 09:09:58;;;;;;;2.47;1.67;;;;;;;;;;469580;253;28650;-76
2023/03/17 09:11:59;;;;;;;2.40;1.83;;;12.40;68.70;;;;;;477063;249;26664;-75
2023/03/17 09:14:02;;;;;;;4.47;2.03;;;;;;;;;;464670;242;28126;-74
2023/03/17 09:16:03;;;;;;;2.03;1.80;;;12.50;67.30;;;;;;472975;249;27035;-74
2023/03/17 09:18:04;;;;;;;3.10;1.90;;;12.60;67.10;;;;;;473170;250;28420;-75
2023/03/17 09:20:06;;;;;;;3.83;2.00;;;12.70;64.90;;;;;;468374;251;28233;-77
2023/03/17 09:22:07;;;;;;;2.40;1.90;;;12.80;65.70;;;;;;470614;248;28886;-74
2023/03/17 09:24:08;;;;;;;2.60;1.77;;;12.70;64.10;;;;;;468616;252;28509;-74
2023/03/17 09:26:09;;;;;;;5.57;5.03;;;12.90;64.50;;;;;;465089;255;28623;-78
2023/03/17 09:28:11;;;;;;;6.20;4.80;;;13.00;65.70;;;;;;467214;253;37048;-76
2023/03/17 09:30:16;;;;;;;4.03;3.63;;;13.00;64.60;;;;;;468937;252;28080;-77
2023/03/17 09:32:16;;;;;;;4.43;3.33;;;13.10;65.60;;;;;;468531;253;28623;-75
2023/03/17 09:34:17;;;;;;;5.30;3.97;;;13.20;64.80;;;;;;467436;244;28165;-76
2023/03/17 09:36:19;;;;;;;14.37;12.50;;;13.20;65.40;;;;;;472814;251;28564;-75
2023/03/17 09:38:21;;;;;;;16.60;14.90;;;13.30;66.10;;;;;;468198;251;28403;-76
2023/03/17 09:40:26;;;;;;;6.60;6.00;;;13.40;64.50;;;;;;466368;255;29083;-76
2023/03/17 09:42:27;;;;;;;3.70;3.40;;;13.50;65.40;;;;;;468828;253;29515;-76
2023/03/17 09:44:28;;;;;;;5.30;2.80;;;13.60;67.00;;;;;;467220;249;29908;-76
2023/03/17 09:46:30;;;;;;;3.33;2.60;;;13.60;66.40;;;;;;467187;254;28778;-75
2023/03/17 09:48:32;;;;;;;2.00;1.77;;;13.70;67.60;;;;;;467313;254;28500;-76
2023/03/17 09:50:32;;;;;;;2.60;2.00;;;13.60;64.30;;;;;;467297;253;28567;-76
2023/03/17 09:52:35;;;;;;;2.90;1.90;;;13.60;64.80;;;;;;467242;254;29325;-76
2023/03/17 09:54:37;;;;;;;2.70;1.93;;;13.60;63.90;;;;;;466539;250;29356;-75
2023/03/17 09:56:36;;;;;;;2.53;2.30;;;13.60;64.20;;;;;;466872;254;29249;-75
2023/03/17 09:58:37;;;;;;;1.80;1.70;;;13.60;63.70;;;;;;469603;250;28733;-75
2023/03/17 10:00:39;;;;;;;3.80;2.20;;;13.60;63.20;;;;;;475337;249;28952;-75
2023/03/17 10:02:40;;;;;;;5.50;2.10;;;13.60;63.70;;;;;;472628;249;28636;-76
2023/03/17 10:04:43;;;;;;;3.47;1.83;;;13.60;63.90;;;;;;483776;236;29755;-75
2023/03/17 10:06:43;;;;;;;3.13;1.80;;;13.70;63.40;;;;;;492155;240;28387;-76
2023/03/17 10:08:44;;;;;;;3.03;1.77;;;13.70;63.20;;;;;;488583;241;28502;-76
2023/03/17 10:10:45;;;;;;;2.70;2.20;;;13.70;62.80;;;;;;488963;243;29345;-75
2023/03/17 10:12:46;;;;;;;7.60;2.60;;;13.80;62.50;;;;;;482944;242;29503;-77
2023/03/17 10:14:48;;;;;;;1.80;1.70;;;13.70;59.90;;;;;;478745;247;29424;-76
2023/03/17 10:16:49;;;;;;;6.50;1.93;;;13.70;62.90;;;;;;491284;239;29989;-76
2023/03/17 10:18:50;;;;;;;3.10;1.97;;;13.60;61.50;;;;;;492674;241;28405;-74
2023/03/17 10:20:51;;;;;;;2.13;1.70;;;13.60;62.70;;;;;;493097;241;28459;-74
2023/03/17 10:22:53;;;;;;;2.50;1.70;;;13.60;61.60;;;;;;484143;241;28558;-75
2023/03/17 10:24:54;;;;;;;2.27;1.77;;;13.60;61.60;;;;;;485465;237;29028;-76
2023/03/17 10:26:56;;;;;;;4.33;1.60;;;13.60;61.90;;;;;;493069;239;29040;-75
2023/03/17 10:28:58;;;;;;;1.70;1.60;;;13.60;62.20;;;;;;483662;246;28961;-75
2023/03/17 10:30:58;;;;;;;2.87;2.07;;;13.60;62.20;;;;;;483593;246;28410;-75
2023/03/17 10:32:59;;;;;;;1.63;1.53;;;13.60;60.60;;;;;;485654;244;28870;-74
2023/03/17 10:35:00;;;;;;;4.10;2.30;;;13.50;61.30;;;;;;477588;234;28897;-75
2023/03/17 10:37:01;;;;;;;5.63;1.90;;;13.60;61.90;;;;;;477473;249;28705;-75